sensor_id;sensor_type;location;lat;lon;timestamp;temperature;humidity
69589;SHT31;56792;50.644;17.984;2023-09-19T00:01:07;19.39;71.71
69589;SHT31;56792;50.644;17.984;2023-09-19T00:03:38;19.41;71.68
69589;SHT31;56792;50.644;17.984;2023-09-19T00:06:08;19.43;71.57
69589;SHT31;56792;50.644;17.984;2023-09-19T00:08:36;19.44;71.76
69589;SHT31;56792;50.644;17.984;2023-09-19T00:11:05;19.44;71.82
69589;SHT31;56792;50.644;17.984;2023-09-19T00:13:34;19.45;71.95
69589;SHT31;56792;50.644;17.984;2023-09-19T00:16:02;19.45;72.11
69589;SHT31;56792;50.644;17.984;2023-09-19T00:18:37;19.45;72.29
69589;SHT31;56792;50.644;17.984;2023-09-19T00:21:05;19.41;72.46
69589;SHT31;56792;50.644;17.984;2023-09-19T00:23:34;19.40;72.49
69589;SHT31;56792;50.644;17.984;2023-09-19T00:26:02;19.39;72.65
69589;SHT31;56792;50.644;17.984;2023-09-19T00:28:30;19.39;72.81
69589;SHT31;56792;50.644;17.984;2023-09-19T00:30:59;19.38;72.68
69589;SHT31;56792;50.644;17.984;2023-09-19T00:33:27;19.38;72.87
69589;SHT31;56792;50.644;17.984;2023-09-19T00:35:56;19.37;73.03
69589;SHT31;56792;50.644;17.984;2023-09-19T00:38:25;19.36;72.99
69589;SHT31;56792;50.644;17.984;2023-09-19T00:40:54;19.36;73.06
69589;SHT31;56792;50.644;17.984;2023-09-19T00:43:23;19.36;73.03
69589;SHT31;56792;50.644;17.984;2023-09-19T00:45:54;19.34;72.87
69589;SHT31;56792;50.644;17.984;2023-09-19T00:48:23;19.32;72.86
69589;SHT31;56792;50.644;17.984;2023-09-19T00:50:54;19.30;73.05
69589;SHT31;56792;50.644;17.984;2023-09-19T00:53:25;19.27;73.07
69589;SHT31;56792;50.644;17.984;2023-09-19T00:55:54;19.27;73.16
69589;SHT31;56792;50.644;17.984;2023-09-19T00:58:23;19.25;73.24
69589;SHT31;56792;50.644;17.984;2023-09-19T01:00:58;19.25;73.45
69589;SHT31;56792;50.644;17.984;2023-09-19T01:03:26;19.25;73.51
69589;SHT31;56792;50.644;17.984;2023-09-19T01:05:55;19.26;73.51
69589;SHT31;56792;50.644;17.984;2023-09-19T01:08:26;19.26;73.66
69589;SHT31;56792;50.644;17.984;2023-09-19T01:11:01;19.27;73.89
69589;SHT31;56792;50.644;17.984;2023-09-19T01:13:55;19.28;73.67
69589;SHT31;56792;50.644;17.984;2023-09-19T01:16:32;19.28;73.74
69589;SHT31;56792;50.644;17.984;2023-09-19T01:19:19;19.30;73.77
69589;SHT31;56792;50.644;17.984;2023-09-19T01:22:21;19.31;73.90
69589;SHT31;56792;50.644;17.984;2023-09-19T01:28:19;19.29;74.07
69589;SHT31;56792;50.644;17.984;2023-09-19T01:31:02;19.29;73.99
69589;SHT31;56792;50.644;17.984;2023-09-19T01:33:57;19.31;74.00
69589;SHT31;56792;50.644;17.984;2023-09-19T01:36:30;19.34;73.95
69589;SHT31;56792;50.644;17.984;2023-09-19T01:39:02;19.35;73.86
69589;SHT31;56792;50.644;17.984;2023-09-19T01:41:47;19.35;73.81
69589;SHT31;56792;50.644;17.984;2023-09-19T01:44:36;19.34;73.75
69589;SHT31;56792;50.644;17.984;2023-09-19T01:47:19;19.34;73.64
69589;SHT31;56792;50.644;17.984;2023-09-19T01:49:59;19.36;73.68
69589;SHT31;56792;50.644;17.984;2023-09-19T01:52:40;19.36;73.76
69589;SHT31;56792;50.644;17.984;2023-09-19T01:55:15;19.37;73.67
69589;SHT31;56792;50.644;17.984;2023-09-19T01:57:48;19.38;73.52
69589;SHT31;56792;50.644;17.984;2023-09-19T02:00:27;19.41;73.42
69589;SHT31;56792;50.644;17.984;2023-09-19T02:03:02;19.43;73.40
69589;SHT31;56792;50.644;17.984;2023-09-19T02:05:31;19.44;73.34
69589;SHT31;56792;50.644;17.984;2023-09-19T02:08:00;19.47;73.40
69589;SHT31;56792;50.644;17.984;2023-09-19T02:10:28;19.50;73.49
69589;SHT31;56792;50.644;17.984;2023-09-19T02:12:58;19.53;73.43
69589;SHT31;56792;50.644;17.984;2023-09-19T02:15:26;19.55;73.42
69589;SHT31;56792;50.644;17.984;2023-09-19T02:17:58;19.57;73.39
69589;SHT31;56792;50.644;17.984;2023-09-19T02:20:28;19.59;73.40
69589;SHT31;56792;50.644;17.984;2023-09-19T02:22:58;19.61;73.48
69589;SHT31;56792;50.644;17.984;2023-09-19T02:25:28;19.65;73.58
69589;SHT31;56792;50.644;17.984;2023-09-19T02:27:57;19.65;73.61
69589;SHT31;56792;50.644;17.984;2023-09-19T02:30:29;19.65;73.68
69589;SHT31;56792;50.644;17.984;2023-09-19T02:32:57;19.66;73.87
69589;SHT31;56792;50.644;17.984;2023-09-19T02:35:28;19.68;73.94
69589;SHT31;56792;50.644;17.984;2023-09-19T02:38:01;19.69;74.18
69589;SHT31;56792;50.644;17.984;2023-09-19T02:40:32;19.69;74.32
69589;SHT31;56792;50.644;17.984;2023-09-19T02:43:02;19.69;74.50
69589;SHT31;56792;50.644;17.984;2023-09-19T02:45:33;19.70;74.62
69589;SHT31;56792;50.644;17.984;2023-09-19T02:48:01;19.71;74.78
69589;SHT31;56792;50.644;17.984;2023-09-19T02:50:34;19.71;74.90
69589;SHT31;56792;50.644;17.984;2023-09-19T02:53:03;19.72;75.02
69589;SHT31;56792;50.644;17.984;2023-09-19T02:55:33;19.72;75.11
69589;SHT31;56792;50.644;17.984;2023-09-19T02:58:05;19.71;75.29
69589;SHT31;56792;50.644;17.984;2023-09-19T03:00:37;19.70;75.39
69589;SHT31;56792;50.644;17.984;2023-09-19T03:03:08;19.69;75.51
69589;SHT31;56792;50.644;17.984;2023-09-19T03:05:37;19.68;75.58
69589;SHT31;56792;50.644;17.984;2023-09-19T03:08:06;19.67;75.66
69589;SHT31;56792;50.644;17.984;2023-09-19T03:10:35;19.66;75.72
69589;SHT31;56792;50.644;17.984;2023-09-19T03:13:04;19.66;75.72
69589;SHT31;56792;50.644;17.984;2023-09-19T03:15:35;19.66;75.78
69589;SHT31;56792;50.644;17.984;2023-09-19T03:18:07;19.67;75.79
69589;SHT31;56792;50.644;17.984;2023-09-19T03:20:35;19.67;75.86
69589;SHT31;56792;50.644;17.984;2023-09-19T03:23:05;19.65;75.89
69589;SHT31;56792;50.644;17.984;2023-09-19T03:25:35;19.65;75.90
69589;SHT31;56792;50.644;17.984;2023-09-19T03:28:04;19.64;75.89
69589;SHT31;56792;50.644;17.984;2023-09-19T03:30:34;19.65;75.91
69589;SHT31;56792;50.644;17.984;2023-09-19T03:33:04;19.63;75.96
69589;SHT31;56792;50.644;17.984;2023-09-19T03:35:33;19.62;76.00
69589;SHT31;56792;50.644;17.984;2023-09-19T03:38:03;19.61;76.07
69589;SHT31;56792;50.644;17.984;2023-09-19T03:40:32;19.60;76.09
69589;SHT31;56792;50.644;17.984;2023-09-19T03:43:03;19.60;76.16
69589;SHT31;56792;50.644;17.984;2023-09-19T03:45:33;19.59;76.19
69589;SHT31;56792;50.644;17.984;2023-09-19T03:48:01;19.61;76.24
69589;SHT31;56792;50.644;17.984;2023-09-19T03:50:35;19.60;76.28
69589;SHT31;56792;50.644;17.984;2023-09-19T03:53:04;19.61;76.26
69589;SHT31;56792;50.644;17.984;2023-09-19T03:55:33;19.61;76.24
69589;SHT31;56792;50.644;17.984;2023-09-19T03:58:01;19.62;76.24
69589;SHT31;56792;50.644;17.984;2023-09-19T04:00:31;19.61;76.30
69589;SHT31;56792;50.644;17.984;2023-09-19T04:03:00;19.61;76.29
69589;SHT31;56792;50.644;17.984;2023-09-19T04:05:32;19.59;76.34
69589;SHT31;56792;50.644;17.984;2023-09-19T04:08:00;19.61;76.39
69589;SHT31;56792;50.644;17.984;2023-09-19T04:10:29;19.60;76.48
69589;SHT31;56792;50.644;17.984;2023-09-19T04:12:57;19.57;76.57
69589;SHT31;56792;50.644;17.984;2023-09-19T04:15:25;19.56;76.59
69589;SHT31;56792;50.644;17.984;2023-09-19T04:17:54;19.53;76.76
69589;SHT31;56792;50.644;17.984;2023-09-19T04:20:22;19.52;76.86
69589;SHT31;56792;50.644;17.984;2023-09-19T04:22:51;19.50;76.95
69589;SHT31;56792;50.644;17.984;2023-09-19T04:25:20;19.48;76.94
69589;SHT31;56792;50.644;17.984;2023-09-19T04:27:48;19.48;77.00
69589;SHT31;56792;50.644;17.984;2023-09-19T04:30:17;19.47;77.06
69589;SHT31;56792;50.644;17.984;2023-09-19T04:32:47;19.46;77.10
69589;SHT31;56792;50.644;17.984;2023-09-19T04:35:16;19.45;77.20
69589;SHT31;56792;50.644;17.984;2023-09-19T04:37:45;19.44;77.27
69589;SHT31;56792;50.644;17.984;2023-09-19T04:40:14;19.44;77.29
69589;SHT31;56792;50.644;17.984;2023-09-19T04:42:43;19.47;77.32
69589;SHT31;56792;50.644;17.984;2023-09-19T04:45:19;19.48;77.37
69589;SHT31;56792;50.644;17.984;2023-09-19T04:47:47;19.48;77.36
69589;SHT31;56792;50.644;17.984;2023-09-19T04:50:16;19.48;77.42
69589;SHT31;56792;50.644;17.984;2023-09-19T04:52:45;19.48;77.50
69589;SHT31;56792;50.644;17.984;2023-09-19T04:55:17;19.48;77.55
69589;SHT31;56792;50.644;17.984;2023-09-19T04:57:45;19.49;77.61
69589;SHT31;56792;50.644;17.984;2023-09-19T05:00:15;19.50;77.62
69589;SHT31;56792;50.644;17.984;2023-09-19T05:02:49;19.51;77.61
69589;SHT31;56792;50.644;17.984;2023-09-19T05:05:18;19.53;77.68
69589;SHT31;56792;50.644;17.984;2023-09-19T05:07:48;19.51;77.74
69589;SHT31;56792;50.644;17.984;2023-09-19T05:10:19;19.52;77.77
69589;SHT31;56792;50.644;17.984;2023-09-19T05:12:48;19.52;77.77
69589;SHT31;56792;50.644;17.984;2023-09-19T05:15:20;19.53;77.79
69589;SHT31;56792;50.644;17.984;2023-09-19T05:17:48;19.55;77.80
69589;SHT31;56792;50.644;17.984;2023-09-19T05:20:20;19.55;77.84
69589;SHT31;56792;50.644;17.984;2023-09-19T05:22:58;19.53;77.90
69589;SHT31;56792;50.644;17.984;2023-09-19T05:25:29;19.54;78.00
69589;SHT31;56792;50.644;17.984;2023-09-19T05:27:59;19.54;77.99
69589;SHT31;56792;50.644;17.984;2023-09-19T05:30:29;19.54;78.02
69589;SHT31;56792;50.644;17.984;2023-09-19T05:32:58;19.51;78.09
69589;SHT31;56792;50.644;17.984;2023-09-19T05:35:26;19.50;78.16
69589;SHT31;56792;50.644;17.984;2023-09-19T05:37:54;19.49;78.22
69589;SHT31;56792;50.644;17.984;2023-09-19T05:40:24;19.49;78.31
69589;SHT31;56792;50.644;17.984;2023-09-19T05:42:53;19.51;78.31
69589;SHT31;56792;50.644;17.984;2023-09-19T05:45:21;19.56;78.36
69589;SHT31;56792;50.644;17.984;2023-09-19T05:47:50;19.59;78.32
69589;SHT31;56792;50.644;17.984;2023-09-19T05:50:21;19.63;78.27
69589;SHT31;56792;50.644;17.984;2023-09-19T05:52:54;19.64;78.28
69589;SHT31;56792;50.644;17.984;2023-09-19T05:55:22;19.62;78.32
69589;SHT31;56792;50.644;17.984;2023-09-19T05:57:51;19.64;78.38
69589;SHT31;56792;50.644;17.984;2023-09-19T06:00:20;19.63;78.48
69589;SHT31;56792;50.644;17.984;2023-09-19T06:02:50;19.61;78.51
69589;SHT31;56792;50.644;17.984;2023-09-19T06:05:19;19.64;78.52
69589;SHT31;56792;50.644;17.984;2023-09-19T06:07:49;19.63;78.49
69589;SHT31;56792;50.644;17.984;2023-09-19T06:10:18;19.63;78.55
69589;SHT31;56792;50.644;17.984;2023-09-19T06:12:47;19.65;78.57
69589;SHT31;56792;50.644;17.984;2023-09-19T06:15:15;19.67;78.53
69589;SHT31;56792;50.644;17.984;2023-09-19T06:17:47;19.69;78.51
69589;SHT31;56792;50.644;17.984;2023-09-19T06:20:16;19.72;78.50
69589;SHT31;56792;50.644;17.984;2023-09-19T06:22:45;19.76;78.41
69589;SHT31;56792;50.644;17.984;2023-09-19T06:25:14;19.86;78.31
69589;SHT31;56792;50.644;17.984;2023-09-19T06:27:45;19.92;78.17
69589;SHT31;56792;50.644;17.984;2023-09-19T06:30:14;19.92;78.06
69589;SHT31;56792;50.644;17.984;2023-09-19T06:32:43;19.95;77.99
69589;SHT31;56792;50.644;17.984;2023-09-19T06:35:12;20.00;77.90
69589;SHT31;56792;50.644;17.984;2023-09-19T06:37:42;20.06;77.89
69589;SHT31;56792;50.644;17.984;2023-09-19T06:40:11;20.10;77.64
69589;SHT31;56792;50.644;17.984;2023-09-19T06:42:41;20.15;77.61
69589;SHT31;56792;50.644;17.984;2023-09-19T06:45:11;20.23;77.54
69589;SHT31;56792;50.644;17.984;2023-09-19T06:47:43;20.28;77.28
69589;SHT31;56792;50.644;17.984;2023-09-19T06:50:15;20.29;77.16
69589;SHT31;56792;50.644;17.984;2023-09-19T06:52:45;20.35;77.15
69589;SHT31;56792;50.644;17.984;2023-09-19T06:55:16;20.41;76.86
69589;SHT31;56792;50.644;17.984;2023-09-19T06:57:45;20.48;76.67
69589;SHT31;56792;50.644;17.984;2023-09-19T07:00:14;20.55;76.25
69589;SHT31;56792;50.644;17.984;2023-09-19T07:02:44;20.63;76.03
69589;SHT31;56792;50.644;17.984;2023-09-19T07:05:22;20.75;75.67
69589;SHT31;56792;50.644;17.984;2023-09-19T07:07:51;20.83;75.18
69589;SHT31;56792;50.644;17.984;2023-09-19T07:10:20;20.90;74.87
69589;SHT31;56792;50.644;17.984;2023-09-19T07:12:54;20.99;74.64
69589;SHT31;56792;50.644;17.984;2023-09-19T07:15:24;21.08;74.40
69589;SHT31;56792;50.644;17.984;2023-09-19T07:17:53;21.12;74.11
69589;SHT31;56792;50.644;17.984;2023-09-19T07:20:22;21.17;73.88
69589;SHT31;56792;50.644;17.984;2023-09-19T07:22:52;21.18;73.71
69589;SHT31;56792;50.644;17.984;2023-09-19T07:25:21;21.22;73.56
69589;SHT31;56792;50.644;17.984;2023-09-19T07:27:49;21.20;73.18
69589;SHT31;56792;50.644;17.984;2023-09-19T07:30:18;21.17;73.05
69589;SHT31;56792;50.644;17.984;2023-09-19T07:32:46;21.18;72.94
69589;SHT31;56792;50.644;17.984;2023-09-19T07:35:15;21.18;72.96
69589;SHT31;56792;50.644;17.984;2023-09-19T07:37:45;21.23;72.88
69589;SHT31;56792;50.644;17.984;2023-09-19T07:40:15;21.25;72.72
69589;SHT31;56792;50.644;17.984;2023-09-19T07:42:44;21.29;72.43
69589;SHT31;56792;50.644;17.984;2023-09-19T07:45:12;21.33;72.26
69589;SHT31;56792;50.644;17.984;2023-09-19T07:47:44;21.36;71.82
69589;SHT31;56792;50.644;17.984;2023-09-19T07:50:13;21.36;71.57
69589;SHT31;56792;50.644;17.984;2023-09-19T07:52:42;21.36;71.48
69589;SHT31;56792;50.644;17.984;2023-09-19T07:55:10;21.35;71.41
69589;SHT31;56792;50.644;17.984;2023-09-19T07:57:43;21.34;71.35
69589;SHT31;56792;50.644;17.984;2023-09-19T08:00:13;21.35;71.45
69589;SHT31;56792;50.644;17.984;2023-09-19T08:02:42;21.33;71.49
69589;SHT31;56792;50.644;17.984;2023-09-19T08:05:12;21.33;71.56
69589;SHT31;56792;50.644;17.984;2023-09-19T08:07:42;21.33;71.39
69589;SHT31;56792;50.644;17.984;2023-09-19T08:10:14;21.27;71.26
69589;SHT31;56792;50.644;17.984;2023-09-19T08:12:45;21.22;71.17
69589;SHT31;56792;50.644;17.984;2023-09-19T08:15:15;21.17;71.20
69589;SHT31;56792;50.644;17.984;2023-09-19T08:17:46;21.11;71.32
69589;SHT31;56792;50.644;17.984;2023-09-19T08:20:15;21.07;71.37
69589;SHT31;56792;50.644;17.984;2023-09-19T08:22:47;21.04;71.58
69589;SHT31;56792;50.644;17.984;2023-09-19T08:25:18;21.01;71.60
69589;SHT31;56792;50.644;17.984;2023-09-19T08:27:47;20.96;71.79
69589;SHT31;56792;50.644;17.984;2023-09-19T08:30:17;20.96;72.04
69589;SHT31;56792;50.644;17.984;2023-09-19T08:32:49;20.95;71.89
69589;SHT31;56792;50.644;17.984;2023-09-19T08:35:18;20.91;71.82
69589;SHT31;56792;50.644;17.984;2023-09-19T08:37:46;20.87;71.91
69589;SHT31;56792;50.644;17.984;2023-09-19T08:40:15;20.82;71.94
69589;SHT31;56792;50.644;17.984;2023-09-19T08:42:50;20.77;71.99
69589;SHT31;56792;50.644;17.984;2023-09-19T08:45:20;20.72;72.05
69589;SHT31;56792;50.644;17.984;2023-09-19T08:48:00;20.67;72.13
69589;SHT31;56792;50.644;17.984;2023-09-19T08:50:43;20.66;72.47
69589;SHT31;56792;50.644;17.984;2023-09-19T08:53:21;20.62;72.64
69589;SHT31;56792;50.644;17.984;2023-09-19T08:55:57;20.58;72.98
69589;SHT31;56792;50.644;17.984;2023-09-19T08:58:31;20.54;73.16
69589;SHT31;56792;50.644;17.984;2023-09-19T09:01:10;20.48;73.39
69589;SHT31;56792;50.644;17.984;2023-09-19T09:03:40;20.40;73.58
69589;SHT31;56792;50.644;17.984;2023-09-19T09:06:14;20.37;73.86
69589;SHT31;56792;50.644;17.984;2023-09-19T09:08:44;20.36;74.07
69589;SHT31;56792;50.644;17.984;2023-09-19T09:11:13;20.37;74.07
69589;SHT31;56792;50.644;17.984;2023-09-19T09:13:43;20.40;74.17
69589;SHT31;56792;50.644;17.984;2023-09-19T09:16:12;20.44;74.20
69589;SHT31;56792;50.644;17.984;2023-09-19T09:18:43;20.47;74.32
69589;SHT31;56792;50.644;17.984;2023-09-19T09:21:12;20.52;74.70
69589;SHT31;56792;50.644;17.984;2023-09-19T09:23:41;20.60;74.73
69589;SHT31;56792;50.644;17.984;2023-09-19T09:26:10;20.63;74.59
69589;SHT31;56792;50.644;17.984;2023-09-19T09:28:45;20.64;74.60
69589;SHT31;56792;50.644;17.984;2023-09-19T09:31:22;20.67;74.56
69589;SHT31;56792;50.644;17.984;2023-09-19T09:33:54;20.70;74.54
69589;SHT31;56792;50.644;17.984;2023-09-19T09:39:07;20.76;74.25
69589;SHT31;56792;50.644;17.984;2023-09-19T09:41:44;20.76;74.41
69589;SHT31;56792;50.644;17.984;2023-09-19T09:44:12;20.77;74.44
69589;SHT31;56792;50.644;17.984;2023-09-19T09:46:43;20.81;74.67
69589;SHT31;56792;50.644;17.984;2023-09-19T09:49:25;20.85;74.61
69589;SHT31;56792;50.644;17.984;2023-09-19T09:52:00;20.85;74.88
69589;SHT31;56792;50.644;17.984;2023-09-19T09:54:33;20.91;74.85
69589;SHT31;56792;50.644;17.984;2023-09-19T09:57:03;20.93;74.60
69589;SHT31;56792;50.644;17.984;2023-09-19T09:59:46;20.94;74.57
69589;SHT31;56792;50.644;17.984;2023-09-19T10:02:19;21.00;74.56
69589;SHT31;56792;50.644;17.984;2023-09-19T10:04:55;21.08;74.31
69589;SHT31;56792;50.644;17.984;2023-09-19T10:07:39;21.14;74.21
69589;SHT31;56792;50.644;17.984;2023-09-19T10:10:15;21.35;74.23
69589;SHT31;56792;50.644;17.984;2023-09-19T10:13:10;21.59;73.67
69589;SHT31;56792;50.644;17.984;2023-09-19T10:15:41;21.76;73.56
69589;SHT31;56792;50.644;17.984;2023-09-19T10:18:16;21.81;73.42
69589;SHT31;56792;50.644;17.984;2023-09-19T10:20:49;21.80;73.11
69589;SHT31;56792;50.644;17.984;2023-09-19T10:23:18;21.77;72.60
69589;SHT31;56792;50.644;17.984;2023-09-19T10:25:49;21.73;72.70
69589;SHT31;56792;50.644;17.984;2023-09-19T10:28:18;21.71;72.38
69589;SHT31;56792;50.644;17.984;2023-09-19T10:30:48;21.69;71.64
69589;SHT31;56792;50.644;17.984;2023-09-19T10:33:18;21.73;71.49
69589;SHT31;56792;50.644;17.984;2023-09-19T10:35:51;21.72;71.34
69589;SHT31;56792;50.644;17.984;2023-09-19T10:38:23;21.69;71.09
69589;SHT31;56792;50.644;17.984;2023-09-19T10:40:54;21.65;71.04
69589;SHT31;56792;50.644;17.984;2023-09-19T10:43:27;21.64;71.14
69589;SHT31;56792;50.644;17.984;2023-09-19T10:46:01;21.64;70.69
69589;SHT31;56792;50.644;17.984;2023-09-19T10:48:36;21.72;70.35
69589;SHT31;56792;50.644;17.984;2023-09-19T10:51:06;21.95;69.86
69589;SHT31;56792;50.644;17.984;2023-09-19T10:53:47;22.33;68.85
69589;SHT31;56792;50.644;17.984;2023-09-19T10:56:21;23.00;67.91
69589;SHT31;56792;50.644;17.984;2023-09-19T10:59:04;23.56;66.64
69589;SHT31;56792;50.644;17.984;2023-09-19T11:01:42;24.55;64.49
69589;SHT31;56792;50.644;17.984;2023-09-19T11:04:26;25.39;62.67
69589;SHT31;56792;50.644;17.984;2023-09-19T11:07:01;26.05;61.45
69589;SHT31;56792;50.644;17.984;2023-09-19T11:09:47;26.83;59.95
69589;SHT31;56792;50.644;17.984;2023-09-19T11:24:28;35.50;43.40
69589;SHT31;56792;50.644;17.984;2023-09-19T11:27:11;37.01;41.68
69589;SHT31;56792;50.644;17.984;2023-09-19T11:29:43;37.16;38.67
69589;SHT31;56792;50.644;17.984;2023-09-19T11:32:13;35.92;39.66
69589;SHT31;56792;50.644;17.984;2023-09-19T11:34:48;37.04;38.17
69589;SHT31;56792;50.644;17.984;2023-09-19T11:40:32;33.58;40.00
69589;SHT31;56792;50.644;17.984;2023-09-19T11:43:04;32.35;41.44
69589;SHT31;56792;50.644;17.984;2023-09-19T11:46:07;31.95;41.47
69589;SHT31;56792;50.644;17.984;2023-09-19T11:48:38;33.22;40.39
69589;SHT31;56792;50.644;17.984;2023-09-19T11:51:14;33.52;39.74
69589;SHT31;56792;50.644;17.984;2023-09-19T11:53:59;33.35;39.12
69589;SHT31;56792;50.644;17.984;2023-09-19T11:56:29;34.38;38.34
69589;SHT31;56792;50.644;17.984;2023-09-19T11:59:06;36.67;36.03
69589;SHT31;56792;50.644;17.984;2023-09-19T12:01:36;38.39;33.71
69589;SHT31;56792;50.644;17.984;2023-09-19T12:04:16;38.90;31.46
69589;SHT31;56792;50.644;17.984;2023-09-19T12:06:59;37.52;32.32
69589;SHT31;56792;50.644;17.984;2023-09-19T12:09:28;37.08;32.43
69589;SHT31;56792;50.644;17.984;2023-09-19T12:11:56;36.94;32.81
69589;SHT31;56792;50.644;17.984;2023-09-19T12:14:25;36.90;32.73
69589;SHT31;56792;50.644;17.984;2023-09-19T12:16:54;36.47;32.58
69589;SHT31;56792;50.644;17.984;2023-09-19T12:19:26;36.77;32.16
69589;SHT31;56792;50.644;17.984;2023-09-19T12:21:55;35.69;33.69
69589;SHT31;56792;50.644;17.984;2023-09-19T12:24:25;34.49;34.40
69589;SHT31;56792;50.644;17.984;2023-09-19T12:27:00;33.15;35.85
69589;SHT31;56792;50.644;17.984;2023-09-19T12:29:41;32.38;37.29
69589;SHT31;56792;50.644;17.984;2023-09-19T12:32:11;32.04;37.54
69589;SHT31;56792;50.644;17.984;2023-09-19T12:34:44;31.41;38.14
69589;SHT31;56792;50.644;17.984;2023-09-19T12:37:20;30.56;39.66
69589;SHT31;56792;50.644;17.984;2023-09-19T12:39:49;29.82;40.50
69589;SHT31;56792;50.644;17.984;2023-09-19T12:42:19;29.17;41.57
69589;SHT31;56792;50.644;17.984;2023-09-19T12:44:50;28.49;42.39
69589;SHT31;56792;50.644;17.984;2023-09-19T12:47:22;27.77;43.31
69589;SHT31;56792;50.644;17.984;2023-09-19T12:50:07;27.21;44.26
69589;SHT31;56792;50.644;17.984;2023-09-19T12:52:43;26.76;43.78
69589;SHT31;56792;50.644;17.984;2023-09-19T12:55:21;26.42;44.35
69589;SHT31;56792;50.644;17.984;2023-09-19T12:57:58;26.10;45.08
69589;SHT31;56792;50.644;17.984;2023-09-19T13:00:36;25.74;45.89
69589;SHT31;56792;50.644;17.984;2023-09-19T13:03:11;25.42;46.46
69589;SHT31;56792;50.644;17.984;2023-09-19T13:08:31;24.77;48.03
69589;SHT31;56792;50.644;17.984;2023-09-19T13:11:04;24.44;48.89
69589;SHT31;56792;50.644;17.984;2023-09-19T13:13:39;24.25;49.30
69589;SHT31;56792;50.644;17.984;2023-09-19T13:16:10;24.09;49.76
69589;SHT31;56792;50.644;17.984;2023-09-19T13:18:44;23.97;49.96
69589;SHT31;56792;50.644;17.984;2023-09-19T13:21:16;23.81;50.44
69589;SHT31;56792;50.644;17.984;2023-09-19T13:26:51;23.37;53.68
69589;SHT31;56792;50.644;17.984;2023-09-19T13:29:20;23.03;57.25
69589;SHT31;56792;50.644;17.984;2023-09-19T13:31:49;22.72;59.11
69589;SHT31;56792;50.644;17.984;2023-09-19T13:34:19;22.55;60.43
69589;SHT31;56792;50.644;17.984;2023-09-19T13:36:47;22.50;61.10
69589;SHT31;56792;50.644;17.984;2023-09-19T13:39:16;22.75;60.97
69589;SHT31;56792;50.644;17.984;2023-09-19T13:41:44;22.97;60.53
69589;SHT31;56792;50.644;17.984;2023-09-19T13:44:14;23.11;60.27
69589;SHT31;56792;50.644;17.984;2023-09-19T13:46:43;23.07;60.44
69589;SHT31;56792;50.644;17.984;2023-09-19T13:49:12;22.87;60.82
69589;SHT31;56792;50.644;17.984;2023-09-19T13:51:41;22.80;61.22
69589;SHT31;56792;50.644;17.984;2023-09-19T13:54:09;23.40;60.10
69589;SHT31;56792;50.644;17.984;2023-09-19T13:56:38;23.92;58.64
69589;SHT31;56792;50.644;17.984;2023-09-19T13:59:06;23.86;58.49
69589;SHT31;56792;50.644;17.984;2023-09-19T14:01:34;23.80;58.38
69589;SHT31;56792;50.644;17.984;2023-09-19T14:04:03;23.76;58.28
69589;SHT31;56792;50.644;17.984;2023-09-19T14:06:32;23.75;58.41
69589;SHT31;56792;50.644;17.984;2023-09-19T14:09:00;23.85;58.64
69589;SHT31;56792;50.644;17.984;2023-09-19T14:11:30;24.02;58.20
69589;SHT31;56792;50.644;17.984;2023-09-19T14:13:58;24.12;57.38
69589;SHT31;56792;50.644;17.984;2023-09-19T14:16:26;24.25;57.31
69589;SHT31;56792;50.644;17.984;2023-09-19T14:18:56;24.35;56.98
69589;SHT31;56792;50.644;17.984;2023-09-19T14:21:25;24.47;56.53
69589;SHT31;56792;50.644;17.984;2023-09-19T14:23:54;24.59;56.40
69589;SHT31;56792;50.644;17.984;2023-09-19T14:26:22;24.69;55.74
69589;SHT31;56792;50.644;17.984;2023-09-19T14:28:50;24.72;55.10
69589;SHT31;56792;50.644;17.984;2023-09-19T14:31:19;24.72;54.59
69589;SHT31;56792;50.644;17.984;2023-09-19T14:33:53;24.67;54.19
69589;SHT31;56792;50.644;17.984;2023-09-19T14:36:22;24.61;53.85
69589;SHT31;56792;50.644;17.984;2023-09-19T14:38:52;24.57;54.64
69589;SHT31;56792;50.644;17.984;2023-09-19T14:41:21;24.56;55.09
69589;SHT31;56792;50.644;17.984;2023-09-19T14:43:51;24.43;55.37
69589;SHT31;56792;50.644;17.984;2023-09-19T14:46:21;24.33;55.97
69589;SHT31;56792;50.644;17.984;2023-09-19T14:48:50;24.25;56.76
69589;SHT31;56792;50.644;17.984;2023-09-19T14:51:19;24.19;57.43
69589;SHT31;56792;50.644;17.984;2023-09-19T14:53:47;24.12;57.75
69589;SHT31;56792;50.644;17.984;2023-09-19T14:56:16;24.09;57.82
69589;SHT31;56792;50.644;17.984;2023-09-19T14:58:45;24.04;58.08
69589;SHT31;56792;50.644;17.984;2023-09-19T15:01:14;24.01;58.19
69589;SHT31;56792;50.644;17.984;2023-09-19T15:03:42;23.99;57.68
69589;SHT31;56792;50.644;17.984;2023-09-19T15:06:12;23.90;57.58
69589;SHT31;56792;50.644;17.984;2023-09-19T15:08:40;23.83;57.93
69589;SHT31;56792;50.644;17.984;2023-09-19T15:11:13;23.76;57.89
69589;SHT31;56792;50.644;17.984;2023-09-19T15:13:43;23.71;57.76
69589;SHT31;56792;50.644;17.984;2023-09-19T15:16:12;23.67;57.88
69589;SHT31;56792;50.644;17.984;2023-09-19T15:18:42;23.63;57.66
69589;SHT31;56792;50.644;17.984;2023-09-19T15:21:13;23.59;56.77
69589;SHT31;56792;50.644;17.984;2023-09-19T15:23:42;23.50;55.33
69589;SHT31;56792;50.644;17.984;2023-09-19T15:26:13;23.42;55.15
69589;SHT31;56792;50.644;17.984;2023-09-19T15:28:46;23.33;54.93
69589;SHT31;56792;50.644;17.984;2023-09-19T15:31:15;23.26;54.73
69589;SHT31;56792;50.644;17.984;2023-09-19T15:33:43;23.19;54.95
69589;SHT31;56792;50.644;17.984;2023-09-19T15:36:12;23.13;55.25
69589;SHT31;56792;50.644;17.984;2023-09-19T15:41:26;22.98;54.03
69589;SHT31;56792;50.644;17.984;2023-09-19T15:43:58;22.91;54.08
69589;SHT31;56792;50.644;17.984;2023-09-19T15:46:29;22.80;54.15
69589;SHT31;56792;50.644;17.984;2023-09-19T15:49:01;22.69;54.48
69589;SHT31;56792;50.644;17.984;2023-09-19T15:51:30;22.60;54.67
69589;SHT31;56792;50.644;17.984;2023-09-19T15:53:58;22.51;55.22
69589;SHT31;56792;50.644;17.984;2023-09-19T15:56:28;22.44;55.64
69589;SHT31;56792;50.644;17.984;2023-09-19T15:58:56;22.34;56.04
69589;SHT31;56792;50.644;17.984;2023-09-19T16:01:24;22.25;56.26
69589;SHT31;56792;50.644;17.984;2023-09-19T16:03:53;22.13;56.53
69589;SHT31;56792;50.644;17.984;2023-09-19T16:06:22;22.04;57.00
69589;SHT31;56792;50.644;17.984;2023-09-19T16:08:54;21.92;57.63
69589;SHT31;56792;50.644;17.984;2023-09-19T16:11:24;21.80;58.28